This is the latest recevied weather packets stored in our database for station/object JF7BTK-10. If no packets are shown the sender has not sent any weather packets the latest 10 day(s).
| Time | Temp. | Humidity | Pressure | Rain* | Wind** | Luminosity | Snow |
|---|---|---|---|---|---|---|---|
| 1787465590 | 30° C | 64% | 1010.8 hPa | 0 mm | - | - | - |
| 1787464690 | 28.89° C | 65% | 1011.2 hPa | 0 mm | - | - | - |
| 1787463790 | 28.89° C | 66% | 1011.2 hPa | 0 mm | - | - | - |
| 1787462890 | 28.33° C | 66% | 1011 hPa | 0 mm | - | - | - |
| 1787461989 | 28.33° C | 66% | 1011.2 hPa | 0 mm | - | - | - |
| 1787461089 | 28.33° C | 64% | 1011.2 hPa | 0 mm | - | - | - |
| 1787460190 | 28.89° C | 64% | 1011.2 hPa | 0 mm | - | - | - |
| 1787459290 | 27.78° C | 66% | 1011.1 hPa | 0 mm | - | - | - |
| 1787458948 | 27.78° C | 65% | 1011 hPa | 0 mm | - | - | - |
| 1787458322 | 27.78° C | 65% | 1011.3 hPa | 0 mm | - | - | - |
| 1787457422 | 28.33° C | 66% | 1011.2 hPa | 0 mm | - | - | - |
| 1787456521 | 29.44° C | 64% | 1011 hPa | 0 mm | - | - | - |
| 1787455621 | 31.11° C | 58% | 1011.2 hPa | 0 mm | - | - | - |
| 1787454721 | 31.11° C | 54% | 1011.2 hPa | 0 mm | - | - | - |
| 1787453821 | 30.56° C | 55% | 1011 hPa | 0 mm | - | - | - |
| 1787452922 | 30.56° C | 56% | 1011.2 hPa | 0 mm | - | - | - |
| 1787452022 | 30° C | 60% | 1011.4 hPa | 0 mm | - | - | - |
| 1787451122 | 30° C | 63% | 1011.6 hPa | 0 mm | - | - | - |
| 1787450222 | 29.44° C | 63% | 1011.4 hPa | 0 mm | - | - | - |
| 1787449322 | 28.33° C | 67% | 1011.7 hPa | 0 mm | - | - | - |
| 1787448421 | 28.89° C | 66% | 1011.9 hPa | 0 mm | - | - | - |
| 1787447522 | 29.44° C | 65% | 1011.9 hPa | 0 mm | - | - | - |
| 1787446622 | 28.89° C | 66% | 1011.9 hPa | 0 mm | - | - | - |
| 1787445722 | 28.33° C | 66% | 1011.9 hPa | 0 mm | - | - | - |
| 1787444822 | 27.78° C | 70% | 1012 hPa | 0 mm | - | - | - |
* Rain latest hour (hover to see other rain measurements)
** Current wind speed in m/s (hover to see current wind gust speed)